sensor_id;sensor_type;location;lat;lon;timestamp;pressure;altitude;pressure_sealevel;temperature;humidity
54872;BME280;43914;57.680;11.982;2022-08-18T00:00:07;100536.35;;;18.74;99.79
54872;BME280;43914;57.680;11.982;2022-08-18T00:02:37;100539.89;;;18.74;99.04
54872;BME280;43914;57.680;11.982;2022-08-18T00:05:04;100537.16;;;18.74;98.88
54872;BME280;43914;57.680;11.982;2022-08-18T00:07:31;100541.30;;;18.77;98.87
54872;BME280;43914;57.680;11.982;2022-08-18T00:09:59;100542.67;;;18.77;98.52
54872;BME280;43914;57.680;11.982;2022-08-18T00:12:31;100545.33;;;18.74;98.19
54872;BME280;43914;57.680;11.982;2022-08-18T00:15:05;100557.06;;;18.75;97.99
54872;BME280;43914;57.680;11.982;2022-08-18T00:17:33;100566.01;;;18.73;97.51
54872;BME280;43914;57.680;11.982;2022-08-18T00:20:05;100565.17;;;18.72;97.18
54872;BME280;43914;57.680;11.982;2022-08-18T00:22:29;100564.33;;;18.72;96.70
54872;BME280;43914;57.680;11.982;2022-08-18T00:24:56;100566.76;;;18.71;96.13
54872;BME280;43914;57.680;11.982;2022-08-18T00:27:28;100567.31;;;18.70;95.93
54872;BME280;43914;57.680;11.982;2022-08-18T00:29:57;100576.06;;;18.72;95.23
54872;BME280;43914;57.680;11.982;2022-08-18T00:32:28;100574.64;;;18.70;94.35
54872;BME280;43914;57.680;11.982;2022-08-18T00:35:10;100567.80;;;18.67;94.05
54872;BME280;43914;57.680;11.982;2022-08-18T00:37:39;100565.89;;;18.68;93.75
54872;BME280;43914;57.680;11.982;2022-08-18T00:40:07;100568.31;;;18.67;93.66
54872;BME280;43914;57.680;11.982;2022-08-18T00:42:44;100562.84;;;18.64;93.44
54872;BME280;43914;57.680;11.982;2022-08-18T00:45:16;100563.66;;;18.65;92.92
54872;BME280;43914;57.680;11.982;2022-08-18T00:47:45;100564.98;;;18.62;92.56
54872;BME280;43914;57.680;11.982;2022-08-18T00:50:18;100562.75;;;18.59;91.98
54872;BME280;43914;57.680;11.982;2022-08-18T00:53:02;100561.62;;;18.57;91.97
54872;BME280;43914;57.680;11.982;2022-08-18T00:55:27;100556.17;;;18.57;91.99
54872;BME280;43914;57.680;11.982;2022-08-18T00:57:59;100558.83;;;18.55;92.01
54872;BME280;43914;57.680;11.982;2022-08-18T01:00:26;100559.09;;;18.53;91.94
54872;BME280;43914;57.680;11.982;2022-08-18T01:02:55;100548.72;;;18.53;91.85
54872;BME280;43914;57.680;11.982;2022-08-18T01:05:32;100550.92;;;18.53;91.70
54872;BME280;43914;57.680;11.982;2022-08-18T01:08:01;100547.62;;;18.51;91.69
54872;BME280;43914;57.680;11.982;2022-08-18T01:10:29;100538.62;;;18.51;91.40
54872;BME280;43914;57.680;11.982;2022-08-18T01:12:57;100534.24;;;18.50;91.60
54872;BME280;43914;57.680;11.982;2022-08-18T01:15:24;100529.06;;;18.48;91.50
54872;BME280;43914;57.680;11.982;2022-08-18T01:17:51;100536.09;;;18.46;91.35
54872;BME280;43914;57.680;11.982;2022-08-18T01:20:37;100535.61;;;18.50;91.26
54872;BME280;43914;57.680;11.982;2022-08-18T01:23:28;100539.98;;;18.51;91.27
54872;BME280;43914;57.680;11.982;2022-08-18T01:25:55;100535.31;;;18.49;91.12
54872;BME280;43914;57.680;11.982;2022-08-18T01:28:26;100533.44;;;18.49;91.09
54872;BME280;43914;57.680;11.982;2022-08-18T01:30:59;100534.80;;;18.49;91.31
54872;BME280;43914;57.680;11.982;2022-08-18T01:33:32;100533.92;;;18.46;91.16
54872;BME280;43914;57.680;11.982;2022-08-18T01:36:09;100529.13;;;18.39;91.39
54872;BME280;43914;57.680;11.982;2022-08-18T01:38:39;100530.95;;;18.33;91.62
54872;BME280;43914;57.680;11.982;2022-08-18T01:41:06;100534.93;;;18.28;91.72
54872;BME280;43914;57.680;11.982;2022-08-18T01:43:33;100539.14;;;18.21;91.64
54872;BME280;43914;57.680;11.982;2022-08-18T01:46:00;100537.97;;;18.17;91.71
54872;BME280;43914;57.680;11.982;2022-08-18T01:48:30;100536.80;;;18.13;91.99
54872;BME280;43914;57.680;11.982;2022-08-18T01:50:59;100535.56;;;18.06;91.94
54872;BME280;43914;57.680;11.982;2022-08-18T01:53:27;100531.87;;;18.00;92.13
54872;BME280;43914;57.680;11.982;2022-08-18T01:55:54;100537.27;;;17.98;92.33
54872;BME280;43914;57.680;11.982;2022-08-18T01:58:20;100530.63;;;17.94;92.43
54872;BME280;43914;57.680;11.982;2022-08-18T02:00:49;100527.29;;;17.89;92.57
54872;BME280;43914;57.680;11.982;2022-08-18T02:03:15;100523.40;;;17.85;92.99
54872;BME280;43914;57.680;11.982;2022-08-18T02:05:43;100515.72;;;17.82;93.29
54872;BME280;43914;57.680;11.982;2022-08-18T02:08:13;100519.80;;;17.82;93.72
54872;BME280;43914;57.680;11.982;2022-08-18T02:10:40;100534.45;;;17.81;93.89
54872;BME280;43914;57.680;11.982;2022-08-18T02:13:07;100529.54;;;17.80;94.20
54872;BME280;43914;57.680;11.982;2022-08-18T02:15:33;100535.86;;;17.83;94.21
54872;BME280;43914;57.680;11.982;2022-08-18T02:18:00;100535.08;;;17.85;94.58
54872;BME280;43914;57.680;11.982;2022-08-18T02:20:26;100531.89;;;17.88;94.77
54872;BME280;43914;57.680;11.982;2022-08-18T02:22:52;100534.67;;;17.91;94.82
54872;BME280;43914;57.680;11.982;2022-08-18T02:25:18;100539.11;;;17.95;95.06
54872;BME280;43914;57.680;11.982;2022-08-18T02:27:44;100538.08;;;17.98;95.01
54872;BME280;43914;57.680;11.982;2022-08-18T02:30:13;100543.62;;;18.01;94.97
54872;BME280;43914;57.680;11.982;2022-08-18T02:32:41;100539.88;;;18.05;95.11
54872;BME280;43914;57.680;11.982;2022-08-18T02:35:07;100534.50;;;18.07;94.67
54872;BME280;43914;57.680;11.982;2022-08-18T02:37:35;100534.56;;;18.10;94.75
54872;BME280;43914;57.680;11.982;2022-08-18T02:40:02;100539.39;;;18.08;94.52
54872;BME280;43914;57.680;11.982;2022-08-18T02:42:29;100531.78;;;18.07;94.77
54872;BME280;43914;57.680;11.982;2022-08-18T02:44:55;100529.55;;;18.04;94.87
54872;BME280;43914;57.680;11.982;2022-08-18T02:47:21;100533.33;;;18.03;95.40
54872;BME280;43914;57.680;11.982;2022-08-18T02:49:47;100538.08;;;17.98;95.06
54872;BME280;43914;57.680;11.982;2022-08-18T02:52:13;100540.14;;;17.94;95.10
54872;BME280;43914;57.680;11.982;2022-08-18T02:54:39;100536.33;;;17.92;95.35
54872;BME280;43914;57.680;11.982;2022-08-18T02:57:11;100533.83;;;17.91;95.54
54872;BME280;43914;57.680;11.982;2022-08-18T02:59:38;100538.97;;;17.89;95.47
54872;BME280;43914;57.680;11.982;2022-08-18T03:02:06;100543.30;;;17.88;95.86
54872;BME280;43914;57.680;11.982;2022-08-18T03:04:33;100539.45;;;17.86;95.52
54872;BME280;43914;57.680;11.982;2022-08-18T03:07:02;100536.15;;;17.84;95.93
54872;BME280;43914;57.680;11.982;2022-08-18T03:09:30;100531.27;;;17.84;95.97
54872;BME280;43914;57.680;11.982;2022-08-18T03:11:58;100536.63;;;17.81;96.06
54872;BME280;43914;57.680;11.982;2022-08-18T03:14:24;100538.47;;;17.78;95.83
54872;BME280;43914;57.680;11.982;2022-08-18T03:16:50;100542.73;;;17.74;96.10
54872;BME280;43914;57.680;11.982;2022-08-18T03:19:16;100537.52;;;17.72;96.71
54872;BME280;43914;57.680;11.982;2022-08-18T03:21:44;100546.40;;;17.68;97.36
54872;BME280;43914;57.680;11.982;2022-08-18T03:24:11;100543.91;;;17.66;97.38
54872;BME280;43914;57.680;11.982;2022-08-18T03:26:44;100543.61;;;17.65;97.86
54872;BME280;43914;57.680;11.982;2022-08-18T03:29:10;100548.45;;;17.63;97.82
54872;BME280;43914;57.680;11.982;2022-08-18T03:31:37;100547.28;;;17.59;97.92
54872;BME280;43914;57.680;11.982;2022-08-18T03:34:06;100548.64;;;17.59;98.32
54872;BME280;43914;57.680;11.982;2022-08-18T03:36:34;100552.42;;;17.58;98.56
54872;BME280;43914;57.680;11.982;2022-08-18T03:39:04;100553.48;;;17.57;98.43
54872;BME280;43914;57.680;11.982;2022-08-18T03:41:32;100553.41;;;17.54;98.26
54872;BME280;43914;57.680;11.982;2022-08-18T03:44:00;100553.88;;;17.51;98.27
54872;BME280;43914;57.680;11.982;2022-08-18T03:46:27;100556.01;;;17.49;98.60
54872;BME280;43914;57.680;11.982;2022-08-18T03:48:56;100557.08;;;17.48;98.56
54872;BME280;43914;57.680;11.982;2022-08-18T03:51:25;100555.94;;;17.47;98.98
54872;BME280;43914;57.680;11.982;2022-08-18T03:53:54;100560.02;;;17.47;99.20
54872;BME280;43914;57.680;11.982;2022-08-18T03:56:26;100567.87;;;17.45;99.46
54872;BME280;43914;57.680;11.982;2022-08-18T03:58:58;100564.63;;;17.46;99.64
54872;BME280;43914;57.680;11.982;2022-08-18T04:01:28;100570.58;;;17.45;99.62
54872;BME280;43914;57.680;11.982;2022-08-18T04:04:01;100568.63;;;17.43;99.68
54872;BME280;43914;57.680;11.982;2022-08-18T04:06:37;100573.01;;;17.44;100.00
54872;BME280;43914;57.680;11.982;2022-08-18T04:09:14;100573.59;;;17.47;100.00
54872;BME280;43914;57.680;11.982;2022-08-18T04:11:41;100573.84;;;17.45;100.00
54872;BME280;43914;57.680;11.982;2022-08-18T04:14:14;100578.44;;;17.44;100.00
54872;BME280;43914;57.680;11.982;2022-08-18T04:16:38;100573.77;;;17.42;100.00
54872;BME280;43914;57.680;11.982;2022-08-18T04:19:05;100554.73;;;17.30;100.00
54872;BME280;43914;57.680;11.982;2022-08-18T04:21:34;100571.90;;;17.43;100.00
54872;BME280;43914;57.680;11.982;2022-08-18T04:24:03;100579.50;;;17.43;100.00
54872;BME280;43914;57.680;11.982;2022-08-18T04:26:34;100587.14;;;17.44;100.00
54872;BME280;43914;57.680;11.982;2022-08-18T04:29:03;100589.38;;;17.47;100.00
54872;BME280;43914;57.680;11.982;2022-08-18T04:31:30;100589.16;;;17.49;100.00
54872;BME280;43914;57.680;11.982;2022-08-18T04:33:58;100586.48;;;17.51;100.00
54872;BME280;43914;57.680;11.982;2022-08-18T04:36:26;100582.19;;;17.53;100.00
54872;BME280;43914;57.680;11.982;2022-08-18T04:38:53;100587.08;;;17.53;99.99
54872;BME280;43914;57.680;11.982;2022-08-18T04:41:20;100588.73;;;17.54;100.00
54872;BME280;43914;57.680;11.982;2022-08-18T04:43:48;100595.53;;;17.54;100.00
54872;BME280;43914;57.680;11.982;2022-08-18T04:46:15;100592.59;;;17.56;100.00
54872;BME280;43914;57.680;11.982;2022-08-18T04:48:41;100592.88;;;17.57;100.00
54872;BME280;43914;57.680;11.982;2022-08-18T04:51:14;100592.63;;;17.58;100.00
54872;BME280;43914;57.680;11.982;2022-08-18T04:53:41;100585.62;;;17.60;100.00
54872;BME280;43914;57.680;11.982;2022-08-18T04:56:29;100586.13;;;17.59;100.00
54872;BME280;43914;57.680;11.982;2022-08-18T04:59:04;100587.49;;;17.59;100.00
54872;BME280;43914;57.680;11.982;2022-08-18T05:01:43;100587.49;;;17.59;100.00
54872;BME280;43914;57.680;11.982;2022-08-18T05:04:10;100586.20;;;17.62;100.00
54872;BME280;43914;57.680;11.982;2022-08-18T05:06:38;100582.72;;;17.64;100.00
54872;BME280;43914;57.680;11.982;2022-08-18T05:09:08;100585.55;;;17.69;100.00
54872;BME280;43914;57.680;11.982;2022-08-18T05:11:36;100587.28;;;17.73;100.00
54872;BME280;43914;57.680;11.982;2022-08-18T05:14:06;100579.02;;;17.80;100.00
54872;BME280;43914;57.680;11.982;2022-08-18T05:16:34;100573.14;;;17.85;100.00
54872;BME280;43914;57.680;11.982;2022-08-18T05:19:02;100567.81;;;17.91;100.00
54872;BME280;43914;57.680;11.982;2022-08-18T05:21:30;100569.83;;;17.95;100.00
54872;BME280;43914;57.680;11.982;2022-08-18T05:23:57;100574.02;;;18.00;100.00
54872;BME280;43914;57.680;11.982;2022-08-18T05:26:25;100571.14;;;18.05;100.00
54872;BME280;43914;57.680;11.982;2022-08-18T05:28:52;100571.80;;;18.09;100.00
54872;BME280;43914;57.680;11.982;2022-08-18T05:31:21;100571.31;;;18.12;100.00
54872;BME280;43914;57.680;11.982;2022-08-18T05:33:49;100570.64;;;18.20;100.00
54872;BME280;43914;57.680;11.982;2022-08-18T05:36:41;100562.84;;;18.23;100.00
54872;BME280;43914;57.680;11.982;2022-08-18T05:39:23;100572.77;;;18.29;100.00
54872;BME280;43914;57.680;11.982;2022-08-18T05:42:11;100572.63;;;18.36;100.00
54872;BME280;43914;57.680;11.982;2022-08-18T05:44:45;100568.16;;;18.44;100.00
54872;BME280;43914;57.680;11.982;2022-08-18T05:49:45;100573.52;;;18.54;100.00
54872;BME280;43914;57.680;11.982;2022-08-18T05:52:17;100573.86;;;18.57;100.00
54872;BME280;43914;57.680;11.982;2022-08-18T05:54:53;100575.00;;;18.59;100.00
54872;BME280;43914;57.680;11.982;2022-08-18T05:57:51;100583.48;;;18.63;100.00
54872;BME280;43914;57.680;11.982;2022-08-18T06:00:23;100574.83;;;18.66;100.00
54872;BME280;43914;57.680;11.982;2022-08-18T06:03:03;100575.48;;;18.70;100.00
54872;BME280;43914;57.680;11.982;2022-08-18T06:05:37;100566.30;;;18.74;100.00
54872;BME280;43914;57.680;11.982;2022-08-18T06:08:09;100568.53;;;18.77;100.00
54872;BME280;43914;57.680;11.982;2022-08-18T06:10:38;100572.70;;;18.82;100.00
54872;BME280;43914;57.680;11.982;2022-08-18T06:13:08;100577.95;;;18.86;100.00
54872;BME280;43914;57.680;11.982;2022-08-18T06:18:59;100581.17;;;19.12;100.00
54872;BME280;43914;57.680;11.982;2022-08-18T06:33:36;100566.95;;;19.96;100.00
54872;BME280;43914;57.680;11.982;2022-08-18T06:39:05;100581.39;;;20.16;100.00
54872;BME280;43914;57.680;11.982;2022-08-18T06:41:38;100579.00;;;20.00;98.77
54872;BME280;43914;57.680;11.982;2022-08-18T06:44:13;100580.02;;;19.94;100.00
54872;BME280;43914;57.680;11.982;2022-08-18T06:49:42;100591.12;;;20.29;99.54
54872;BME280;43914;57.680;11.982;2022-08-18T06:54:50;100598.49;;;20.28;99.97
54872;BME280;43914;57.680;11.982;2022-08-18T06:57:27;100606.36;;;20.27;96.88
54872;BME280;43914;57.680;11.982;2022-08-18T06:59:58;100608.66;;;20.13;96.89
54872;BME280;43914;57.680;11.982;2022-08-18T07:05:20;100604.20;;;19.90;97.00
54872;BME280;43914;57.680;11.982;2022-08-18T07:10:40;100605.22;;;19.67;97.97
54872;BME280;43914;57.680;11.982;2022-08-18T07:13:26;100605.64;;;19.58;98.20
54872;BME280;43914;57.680;11.982;2022-08-18T07:16:13;100606.64;;;19.52;98.59
54872;BME280;43914;57.680;11.982;2022-08-18T07:18:27;100603.80;;;19.47;98.91
54872;BME280;43914;57.680;11.982;2022-08-18T07:20:57;100608.97;;;19.46;99.48
54872;BME280;43914;57.680;11.982;2022-08-18T07:23:34;100610.88;;;19.45;99.63
54872;BME280;43914;57.680;11.982;2022-08-18T07:26:07;100610.04;;;19.45;99.83
54872;BME280;43914;57.680;11.982;2022-08-18T07:28:39;100607.61;;;19.46;100.00
54872;BME280;43914;57.680;11.982;2022-08-18T07:31:31;100600.56;;;19.48;100.00
54872;BME280;43914;57.680;11.982;2022-08-18T07:36:53;100601.21;;;19.55;100.00
54872;BME280;43914;57.680;11.982;2022-08-18T07:42:08;100588.50;;;19.60;100.00
54872;BME280;43914;57.680;11.982;2022-08-18T07:47:49;100596.41;;;19.62;99.98
54872;BME280;43914;57.680;11.982;2022-08-18T07:50:14;100586.34;;;19.63;99.66
54872;BME280;43914;57.680;11.982;2022-08-18T07:52:47;100588.52;;;19.63;99.87
54872;BME280;43914;57.680;11.982;2022-08-18T07:55:21;100583.64;;;19.65;100.00
54872;BME280;43914;57.680;11.982;2022-08-18T07:58:14;100586.63;;;19.64;99.59
54872;BME280;43914;57.680;11.982;2022-08-18T08:01:03;100582.20;;;19.60;99.14
54872;BME280;43914;57.680;11.982;2022-08-18T08:07:04;100564.91;;;19.52;99.89
54872;BME280;43914;57.680;11.982;2022-08-18T08:23:28;100553.28;;;19.39;100.00
54872;BME280;43914;57.680;11.982;2022-08-18T08:29:09;100567.77;;;19.59;100.00
54872;BME280;43914;57.680;11.982;2022-08-18T08:31:47;100575.02;;;19.71;100.00
54872;BME280;43914;57.680;11.982;2022-08-18T08:34:41;100585.08;;;19.87;100.00
54872;BME280;43914;57.680;11.982;2022-08-18T08:37:32;100583.88;;;19.98;100.00
54872;BME280;43914;57.680;11.982;2022-08-18T08:40:04;100580.30;;;20.14;100.00
54872;BME280;43914;57.680;11.982;2022-08-18T08:42:44;100585.95;;;20.30;98.98
54872;BME280;43914;57.680;11.982;2022-08-18T08:45:21;100576.78;;;20.39;98.25
54872;BME280;43914;57.680;11.982;2022-08-18T08:47:59;100577.91;;;20.43;96.97
54872;BME280;43914;57.680;11.982;2022-08-18T08:50:32;100577.95;;;20.45;96.65
54872;BME280;43914;57.680;11.982;2022-08-18T08:53:30;100572.78;;;20.46;96.26
54872;BME280;43914;57.680;11.982;2022-08-18T08:56:05;100574.73;;;20.51;96.24
54872;BME280;43914;57.680;11.982;2022-08-18T08:58:42;100570.39;;;20.53;95.46
54872;BME280;43914;57.680;11.982;2022-08-18T09:05:03;100569.55;;;20.52;93.89
54872;BME280;43914;57.680;11.982;2022-08-18T09:07:37;100562.39;;;20.46;93.64
54872;BME280;43914;57.680;11.982;2022-08-18T09:19:18;100553.67;;;20.46;93.39
54872;BME280;43914;57.680;11.982;2022-08-18T09:22:03;100551.56;;;20.54;93.59
54872;BME280;43914;57.680;11.982;2022-08-18T09:24:29;100559.33;;;20.65;93.53
54872;BME280;43914;57.680;11.982;2022-08-18T09:27:29;100558.30;;;20.71;92.75
54872;BME280;43914;57.680;11.982;2022-08-18T09:30:06;100557.33;;;20.80;92.62
54872;BME280;43914;57.680;11.982;2022-08-18T09:32:51;100552.81;;;20.93;92.10
54872;BME280;43914;57.680;11.982;2022-08-18T09:37:53;100549.85;;;21.30;90.84
54872;BME280;43914;57.680;11.982;2022-08-18T09:40:49;100552.44;;;21.50;89.36
54872;BME280;43914;57.680;11.982;2022-08-18T09:43:51;100547.17;;;21.75;89.88
54872;BME280;43914;57.680;11.982;2022-08-18T09:52:00;100527.48;;;22.32;87.71
54872;BME280;43914;57.680;11.982;2022-08-18T09:57:34;100521.02;;;22.64;85.47
54872;BME280;43914;57.680;11.982;2022-08-18T10:10:49;100501.30;;;22.83;82.27
54872;BME280;43914;57.680;11.982;2022-08-18T10:13:47;100511.70;;;22.86;81.01
54872;BME280;43914;57.680;11.982;2022-08-18T10:19:23;100523.22;;;22.88;78.12
54872;BME280;43914;57.680;11.982;2022-08-18T10:22:02;100521.30;;;22.75;74.98
54872;BME280;43914;57.680;11.982;2022-08-18T10:24:37;100520.75;;;22.68;74.71
54872;BME280;43914;57.680;11.982;2022-08-18T10:30:08;100519.38;;;22.68;76.20
54872;BME280;43914;57.680;11.982;2022-08-18T10:32:41;100514.45;;;22.75;76.08
54872;BME280;43914;57.680;11.982;2022-08-18T10:38:14;100512.81;;;23.11;76.01
54872;BME280;43914;57.680;11.982;2022-08-18T10:40:42;100506.81;;;23.29;75.84
54872;BME280;43914;57.680;11.982;2022-08-18T10:43:18;100506.80;;;23.40;74.09
54872;BME280;43914;57.680;11.982;2022-08-18T10:45:51;100497.73;;;23.49;72.85
54872;BME280;43914;57.680;11.982;2022-08-18T10:48:23;100493.02;;;23.63;73.67
54872;BME280;43914;57.680;11.982;2022-08-18T10:51:18;100491.89;;;23.80;72.85
54872;BME280;43914;57.680;11.982;2022-08-18T10:54:02;100492.35;;;23.97;72.77
54872;BME280;43914;57.680;11.982;2022-08-18T10:56:47;100490.92;;;24.20;72.19
54872;BME280;43914;57.680;11.982;2022-08-18T10:59:38;100491.89;;;24.43;70.09
54872;BME280;43914;57.680;11.982;2022-08-18T11:02:17;100487.34;;;24.68;69.79
54872;BME280;43914;57.680;11.982;2022-08-18T11:04:50;100485.02;;;24.88;68.12
54872;BME280;43914;57.680;11.982;2022-08-18T11:07:20;100482.75;;;24.95;64.50
54872;BME280;43914;57.680;11.982;2022-08-18T11:09:52;100485.98;;;25.02;62.96
54872;BME280;43914;57.680;11.982;2022-08-18T11:15:25;100489.09;;;24.93;61.79
54872;BME280;43914;57.680;11.982;2022-08-18T11:20:32;100484.13;;;24.95;63.69
54872;BME280;43914;57.680;11.982;2022-08-18T11:23:00;100485.44;;;25.03;63.18
54872;BME280;43914;57.680;11.982;2022-08-18T11:25:34;100487.98;;;24.91;62.15
54872;BME280;43914;57.680;11.982;2022-08-18T11:28:01;100484.53;;;24.78;61.73
54872;BME280;43914;57.680;11.982;2022-08-18T11:30:33;100480.47;;;24.68;63.15
54872;BME280;43914;57.680;11.982;2022-08-18T11:33:02;100485.91;;;24.81;63.20
54872;BME280;43914;57.680;11.982;2022-08-18T11:35:34;100484.76;;;24.84;62.84
54872;BME280;43914;57.680;11.982;2022-08-18T11:38:13;100482.06;;;24.76;63.69
54872;BME280;43914;57.680;11.982;2022-08-18T11:40:42;100478.80;;;24.69;62.78
54872;BME280;43914;57.680;11.982;2022-08-18T11:45:55;100487.28;;;24.78;63.17
54872;BME280;43914;57.680;11.982;2022-08-18T11:48:44;100479.38;;;25.03;64.19
54872;BME280;43914;57.680;11.982;2022-08-18T11:51:28;100480.03;;;25.22;63.09
54872;BME280;43914;57.680;11.982;2022-08-18T11:53:56;100469.84;;;25.23;62.61
54872;BME280;43914;57.680;11.982;2022-08-18T11:56:32;100469.30;;;25.23;61.71
54872;BME280;43914;57.680;11.982;2022-08-18T11:59:18;100464.08;;;25.21;60.89
54872;BME280;43914;57.680;11.982;2022-08-18T12:01:57;100465.71;;;25.23;60.71
54872;BME280;43914;57.680;11.982;2022-08-18T12:04:31;100465.64;;;25.30;60.62
54872;BME280;43914;57.680;11.982;2022-08-18T12:07:02;100463.34;;;25.40;60.47
54872;BME280;43914;57.680;11.982;2022-08-18T12:12:28;100474.86;;;25.45;58.42
54872;BME280;43914;57.680;11.982;2022-08-18T12:15:00;100466.58;;;25.50;59.06
54872;BME280;43914;57.680;11.982;2022-08-18T12:17:28;100469.99;;;25.63;59.30
54872;BME280;43914;57.680;11.982;2022-08-18T12:19:56;100469.30;;;25.77;59.29
54872;BME280;43914;57.680;11.982;2022-08-18T12:22:26;100469.50;;;25.83;58.75
54872;BME280;43914;57.680;11.982;2022-08-18T12:24:56;100466.48;;;25.82;58.08
54872;BME280;43914;57.680;11.982;2022-08-18T12:27:24;100459.03;;;25.83;57.82
54872;BME280;43914;57.680;11.982;2022-08-18T12:29:53;100463.34;;;25.89;58.65
54872;BME280;43914;57.680;11.982;2022-08-18T12:32:22;100459.17;;;25.94;57.99
54872;BME280;43914;57.680;11.982;2022-08-18T12:34:50;100461.69;;;25.90;57.55
54872;BME280;43914;57.680;11.982;2022-08-18T12:37:19;100453.15;;;25.92;57.38
54872;BME280;43914;57.680;11.982;2022-08-18T12:39:47;100461.00;;;26.01;57.82
54872;BME280;43914;57.680;11.982;2022-08-18T12:42:13;100454.75;;;26.15;57.65
54872;BME280;43914;57.680;11.982;2022-08-18T12:44:39;100445.97;;;26.34;58.55
54872;BME280;43914;57.680;11.982;2022-08-18T12:47:11;100445.17;;;26.50;57.98
54872;BME280;43914;57.680;11.982;2022-08-18T12:49:39;100436.62;;;26.69;57.38
54872;BME280;43914;57.680;11.982;2022-08-18T12:52:05;100437.27;;;26.96;57.82
54872;BME280;43914;57.680;11.982;2022-08-18T12:54:32;100443.71;;;27.22;56.52
54872;BME280;43914;57.680;11.982;2022-08-18T12:57:00;100441.73;;;27.39;56.51
54872;BME280;43914;57.680;11.982;2022-08-18T12:59:28;100440.86;;;27.58;55.68
54872;BME280;43914;57.680;11.982;2022-08-18T13:01:54;100442.78;;;27.71;55.32
54872;BME280;43914;57.680;11.982;2022-08-18T13:04:20;100444.00;;;27.79;54.98
54872;BME280;43914;57.680;11.982;2022-08-18T13:06:51;100436.64;;;27.74;54.47
54872;BME280;43914;57.680;11.982;2022-08-18T13:09:20;100438.45;;;27.68;54.08
54872;BME280;43914;57.680;11.982;2022-08-18T13:11:47;100437.10;;;27.79;54.23
54872;BME280;43914;57.680;11.982;2022-08-18T13:14:13;100431.53;;;28.07;53.41
54872;BME280;43914;57.680;11.982;2022-08-18T13:16:44;100433.61;;;28.38;51.88
54872;BME280;43914;57.680;11.982;2022-08-18T13:19:12;100438.77;;;28.65;51.13
54872;BME280;43914;57.680;11.982;2022-08-18T13:21:39;100436.01;;;28.65;50.96
54872;BME280;43914;57.680;11.982;2022-08-18T13:24:07;100439.20;;;28.58;50.36
54872;BME280;43914;57.680;11.982;2022-08-18T13:26:36;100441.59;;;28.51;50.55
54872;BME280;43914;57.680;11.982;2022-08-18T13:29:05;100435.75;;;28.41;50.67
54872;BME280;43914;57.680;11.982;2022-08-18T13:31:31;100440.40;;;28.32;50.17
54872;BME280;43914;57.680;11.982;2022-08-18T13:33:58;100436.59;;;28.16;49.40
54872;BME280;43914;57.680;11.982;2022-08-18T13:36:27;100433.16;;;28.08;49.66
54872;BME280;43914;57.680;11.982;2022-08-18T13:38:58;100429.73;;;28.14;49.88
54872;BME280;43914;57.680;11.982;2022-08-18T13:41:25;100436.47;;;28.21;50.91
54872;BME280;43914;57.680;11.982;2022-08-18T13:43:51;100432.88;;;28.58;50.09
54872;BME280;43914;57.680;11.982;2022-08-18T13:46:18;100435.31;;;28.59;49.48
54872;BME280;43914;57.680;11.982;2022-08-18T13:48:45;100437.25;;;28.47;50.24
54872;BME280;43914;57.680;11.982;2022-08-18T13:51:15;100428.84;;;28.41;49.89
54872;BME280;43914;57.680;11.982;2022-08-18T13:53:43;100424.99;;;28.28;50.96
54872;BME280;43914;57.680;11.982;2022-08-18T13:56:11;100424.73;;;28.16;49.42
54872;BME280;43914;57.680;11.982;2022-08-18T13:58:37;100423.24;;;28.07;49.65
54872;BME280;43914;57.680;11.982;2022-08-18T14:01:05;100421.52;;;27.97;50.09
54872;BME280;43914;57.680;11.982;2022-08-18T14:03:33;100426.68;;;27.76;50.21
54872;BME280;43914;57.680;11.982;2022-08-18T14:06:02;100431.30;;;27.53;50.77
54872;BME280;43914;57.680;11.982;2022-08-18T14:08:29;100426.73;;;27.31;51.62
54872;BME280;43914;57.680;11.982;2022-08-18T14:10:58;100423.77;;;27.11;52.21
54872;BME280;43914;57.680;11.982;2022-08-18T14:13:26;100427.94;;;26.95;52.65
54872;BME280;43914;57.680;11.982;2022-08-18T14:15:54;100426.69;;;27.03;53.10
54872;BME280;43914;57.680;11.982;2022-08-18T14:18:23;100420.46;;;27.12;52.92
54872;BME280;43914;57.680;11.982;2022-08-18T14:20:51;100416.59;;;27.27;52.89
54872;BME280;43914;57.680;11.982;2022-08-18T14:23:35;100410.06;;;27.36;52.68
54872;BME280;43914;57.680;11.982;2022-08-18T14:26:19;100408.02;;;27.70;52.82
54872;BME280;43914;57.680;11.982;2022-08-18T14:29:04;100405.69;;;27.89;51.77
54872;BME280;43914;57.680;11.982;2022-08-18T14:31:31;100409.21;;;27.67;51.68
54872;BME280;43914;57.680;11.982;2022-08-18T14:33:57;100398.92;;;27.42;52.19
54872;BME280;43914;57.680;11.982;2022-08-18T14:36:23;100405.70;;;27.19;52.47
54872;BME280;43914;57.680;11.982;2022-08-18T14:38:49;100408.92;;;26.93;52.92
54872;BME280;43914;57.680;11.982;2022-08-18T14:41:15;100404.38;;;26.69;53.99
54872;BME280;43914;57.680;11.982;2022-08-18T14:43:42;100402.72;;;26.52;54.70
54872;BME280;43914;57.680;11.982;2022-08-18T14:46:11;100406.63;;;26.31;55.27
54872;BME280;43914;57.680;11.982;2022-08-18T14:48:37;100407.20;;;26.09;56.27
54872;BME280;43914;57.680;11.982;2022-08-18T14:51:04;100410.31;;;25.83;57.06
54872;BME280;43914;57.680;11.982;2022-08-18T14:53:31;100413.64;;;25.58;58.13
54872;BME280;43914;57.680;11.982;2022-08-18T14:55:58;100412.01;;;25.30;58.91